Time;durP1;ratioP1;P1;durP2;ratioP2;P2;SDS_P1;SDS_P2;PMS_P1;PMS_P2;Temp;Humidity;BMP_temperature;BMP_pressure;BME280_temperature;BME280_humidity;BME280_pressure;Samples;Min_cycle;Max_cycle;Signal;HPM_P1;HPM_P2
2022/03/15 00:00:57;;;;;;;15.63;9.10;;;;;;;;;;5026853;28;20029;-57
2022/03/15 00:03:23;;;;;;;16.67;8.75;;;;;;;;;;5026548;28;20096;-55
2022/03/15 00:05:50;;;;;;;15.27;8.23;;;;;;;;;;5022862;28;20669;-57
2022/03/15 00:08:19;;;;;;;14.07;8.43;;;;;;;;;;5029872;28;20095;-55
2022/03/15 00:10:46;;;;;;;14.32;8.00;;;;;;;;;;5021099;28;20485;-56
2022/03/15 00:13:12;;;;;;;14.35;7.82;;;;;;;;;;5030089;28;20025;-55
2022/03/15 00:15:40;;;;;;;15.27;7.65;;;;;;;;;;5029910;28;20029;-56
2022/03/15 00:18:07;;;;;;;12.32;7.60;;;;;;;;;;5029991;28;20086;-57
2022/03/15 00:20:33;;;;;;;15.43;8.13;;;;;;;;;;5023951;28;20424;-56
2022/03/15 00:23:00;;;;;;;13.32;8.07;;;;;;;;;;5026339;28;20029;-54
2022/03/15 00:25:26;;;;;;;12.55;7.57;;;;;;;;;;5030785;28;20094;-56
2022/03/15 00:27:52;;;;;;;13.95;8.40;;;;;;;;;;5026439;28;20099;-56
2022/03/15 00:30:20;;;;;;;17.50;9.55;;;;;;;;;;5024491;28;20013;-55
2022/03/15 00:32:47;;;;;;;18.00;9.65;;;;;;;;;;5024804;28;20290;-56
2022/03/15 00:35:21;;;;;;;18.70;9.55;;;;;;;;;;5025460;28;20026;-56
2022/03/15 00:37:50;;;;;;;14.52;9.00;;;;;;;;;;5024655;28;20103;-58
2022/03/15 00:40:16;;;;;;;16.95;8.65;;;;;;;;;;5029664;28;20024;-55
2022/03/15 00:42:46;;;;;;;16.52;9.23;;;;;;;;;;5027015;28;20029;-56
2022/03/15 00:45:13;;;;;;;13.73;8.70;;;;;;;;;;5028961;28;20415;-56
2022/03/15 00:47:38;;;;;;;15.32;8.75;;;;;;;;;;5027592;28;20100;-57
2022/03/15 00:50:05;;;;;;;14.23;8.60;;;;;;;;;;5031018;28;20113;-55
2022/03/15 00:52:31;;;;;;;14.25;8.68;;;;;;;;;;5025090;28;20041;-56
2022/03/15 00:54:57;;;;;;;14.98;8.65;;;;;;;;;;5023261;28;20029;-56
2022/03/15 00:57:23;;;;;;;13.38;8.32;;;;;;;;;;5027586;28;20099;-57
2022/03/15 00:59:49;;;;;;;14.93;7.88;;;;;;;;;;5024631;28;20203;-56
2022/03/15 01:02:15;;;;;;;13.73;8.27;;;;;;;;;;5026314;28;20026;-55
2022/03/15 01:04:41;;;;;;;14.35;7.75;;;;;;;;;;5028583;28;20036;-56
2022/03/15 01:07:07;;;;;;;13.82;7.60;;;;;;;;;;5036441;28;20025;-57
2022/03/15 01:09:35;;;;;;;16.45;7.90;;;;;;;;;;5033920;28;20034;-55
2022/03/15 01:12:01;;;;;;;20.52;8.88;;;;;;;;;;5026767;28;20027;-56
2022/03/15 01:14:27;;;;;;;14.80;8.23;;;;;;;;;;5028064;28;20044;-56
2022/03/15 01:16:55;;;;;;;14.52;8.98;;;;;;;;;;5023445;28;20041;-56
2022/03/15 01:19:21;;;;;;;14.65;8.38;;;;;;;;;;5031048;28;20045;-56
2022/03/15 01:21:47;;;;;;;16.60;8.40;;;;;;;;;;5026218;28;20453;-57
2022/03/15 01:24:13;;;;;;;13.02;7.88;;;;;;;;;;5029390;28;20037;-56
2022/03/15 01:26:39;;;;;;;15.27;8.20;;;;;;;;;;5026870;28;20030;-56
2022/03/15 01:29:05;;;;;;;14.60;8.60;;;;;;;;;;5026044;28;20501;-56
2022/03/15 01:31:32;;;;;;;15.02;8.15;;;;;;;;;;5028686;28;20029;-55
2022/03/15 01:33:58;;;;;;;16.17;8.00;;;;;;;;;;5027986;28;20496;-57
2022/03/15 01:36:23;;;;;;;15.73;9.13;;;;;;;;;;5026074;28;20029;-56
2022/03/15 01:38:53;;;;;;;14.68;8.45;;;;;;;;;;5027428;28;20558;-56
2022/03/15 01:41:22;;;;;;;13.00;9.02;;;;;;;;;;5030811;28;20021;-56
2022/03/15 01:43:48;;;;;;;15.05;8.63;;;;;;;;;;5026397;28;20037;-57
2022/03/15 01:46:15;;;;;;;15.15;8.82;;;;;;;;;;5027335;28;20033;-56
2022/03/15 01:48:41;;;;;;;18.92;9.18;;;;;;;;;;5027486;28;20078;-56
2022/03/15 01:51:07;;;;;;;15.18;9.15;;;;;;;;;;5026793;28;20037;-55
2022/03/15 01:53:34;;;;;;;17.35;8.95;;;;;;;;;;5029549;28;20035;-57
2022/03/15 01:56:00;;;;;;;16.80;9.60;;;;;;;;;;5030848;28;20095;-56
2022/03/15 01:58:27;;;;;;;17.63;8.75;;;;;;;;;;5026977;28;20037;-57
2022/03/15 02:00:53;;;;;;;15.40;8.82;;;;;;;;;;5029916;28;22534;-56
2022/03/15 02:03:19;;;;;;;15.55;8.77;;;;;;;;;;5032577;28;20029;-56
2022/03/15 02:05:45;;;;;;;16.13;8.50;;;;;;;;;;5027314;28;20680;-57
2022/03/15 02:08:12;;;;;;;17.83;9.35;;;;;;;;;;5029048;28;20036;-56
2022/03/15 02:10:38;;;;;;;17.08;9.70;;;;;;;;;;5028023;28;20041;-56
2022/03/15 02:13:04;;;;;;;19.95;9.43;;;;;;;;;;5032229;28;20060;-56
2022/03/15 02:15:30;;;;;;;14.98;9.57;;;;;;;;;;5027456;28;20865;-56
2022/03/15 02:17:57;;;;;;;15.13;8.85;;;;;;;;;;5030797;28;20068;-56
2022/03/15 02:20:23;;;;;;;15.60;8.80;;;;;;;;;;5027894;28;20036;-57
2022/03/15 02:22:49;;;;;;;17.70;9.07;;;;;;;;;;5025052;28;20116;-56
2022/03/15 02:25:15;;;;;;;16.30;9.70;;;;;;;;;;5026773;28;20021;-56
2022/03/15 02:27:41;;;;;;;16.88;9.93;;;;;;;;;;5032159;28;20033;-57
2022/03/15 02:30:07;;;;;;;15.05;9.27;;;;;;;;;;5024942;28;20115;-54
2022/03/15 02:32:34;;;;;;;15.63;8.60;;;;;;;;;;5028123;28;20135;-56
2022/03/15 02:35:00;;;;;;;13.75;9.35;;;;;;;;;;5022448;28;20527;-56
2022/03/15 02:37:26;;;;;;;15.85;9.15;;;;;;;;;;5026988;28;20037;-56
2022/03/15 02:39:52;;;;;;;15.25;8.52;;;;;;;;;;5026465;28;20051;-54
2022/03/15 02:42:19;;;;;;;12.93;8.82;;;;;;;;;;5036127;28;20463;-54
2022/03/15 02:44:45;;;;;;;13.98;9.20;;;;;;;;;;5034382;28;20481;-54
2022/03/15 02:47:11;;;;;;;14.73;9.40;;;;;;;;;;5028266;28;20027;-55
2022/03/15 02:49:37;;;;;;;15.13;9.02;;;;;;;;;;5037184;28;20047;-55
2022/03/15 02:52:03;;;;;;;14.57;9.48;;;;;;;;;;5035037;28;20092;-56
2022/03/15 02:54:29;;;;;;;14.52;8.88;;;;;;;;;;5033546;28;20036;-55
2022/03/15 02:56:55;;;;;;;15.65;8.98;;;;;;;;;;5027239;28;20036;-55
2022/03/15 02:59:21;;;;;;;13.90;9.20;;;;;;;;;;5030902;28;20033;-57
2022/03/15 03:01:48;;;;;;;13.57;9.10;;;;;;;;;;5033397;28;20139;-56
2022/03/15 03:04:15;;;;;;;16.05;8.88;;;;;;;;;;5032935;28;20033;-56
2022/03/15 03:06:41;;;;;;;13.95;9.10;;;;;;;;;;5034531;28;20023;-55
2022/03/15 03:09:07;;;;;;;15.85;9.30;;;;;;;;;;5029137;28;20473;-55
2022/03/15 03:11:33;;;;;;;18.30;9.60;;;;;;;;;;5030600;28;20059;-56
2022/03/15 03:14:00;;;;;;;16.48;9.30;;;;;;;;;;5030715;28;20067;-55
2022/03/15 03:16:27;;;;;;;14.25;9.50;;;;;;;;;;5028441;28;20066;-56
2022/03/15 03:18:58;;;;;;;13.10;9.18;;;;;;;;;;5030744;28;20120;-54
2022/03/15 03:21:28;;;;;;;16.92;9.52;;;;;;;;;;5028553;28;20022;-57
2022/03/15 03:23:54;;;;;;;16.13;9.13;;;;;;;;;;5026331;28;20226;-56
2022/03/15 03:26:21;;;;;;;13.15;9.40;;;;;;;;;;5026599;28;20116;-56
2022/03/15 03:28:48;;;;;;;15.80;9.43;;;;;;;;;;5031172;28;20713;-55
2022/03/15 03:31:15;;;;;;;16.33;9.73;;;;;;;;;;5027807;28;20037;-55
2022/03/15 03:33:41;;;;;;;17.63;9.50;;;;;;;;;;5028963;28;20497;-56
2022/03/15 03:36:07;;;;;;;16.55;9.63;;;;;;;;;;5027186;28;20124;-56
2022/03/15 03:38:33;;;;;;;16.02;9.50;;;;;;;;;;5024587;28;20072;-57
2022/03/15 03:40:59;;;;;;;16.23;9.20;;;;;;;;;;5028088;28;20060;-57
2022/03/15 03:43:26;;;;;;;15.65;9.45;;;;;;;;;;5030528;28;20017;-54
2022/03/15 03:45:52;;;;;;;16.88;9.50;;;;;;;;;;5026259;28;20096;-56
2022/03/15 03:48:18;;;;;;;13.15;8.57;;;;;;;;;;5031966;28;20073;-55
2022/03/15 03:50:44;;;;;;;15.07;8.23;;;;;;;;;;5028209;28;20557;-57
2022/03/15 03:53:10;;;;;;;13.05;9.13;;;;;;;;;;5023489;28;20048;-55
2022/03/15 03:55:36;;;;;;;15.55;9.30;;;;;;;;;;5024944;28;20037;-56
2022/03/15 03:58:02;;;;;;;13.18;9.30;;;;;;;;;;5027675;28;20026;-55
2022/03/15 04:00:29;;;;;;;12.55;9.20;;;;;;;;;;5029544;28;20036;-54
2022/03/15 04:03:00;;;;;;;16.42;9.18;;;;;;;;;;5026657;28;20051;-55
2022/03/15 04:05:26;;;;;;;14.40;8.70;;;;;;;;;;5025555;28;20079;-55
2022/03/15 04:07:54;;;;;;;14.98;9.43;;;;;;;;;;5024070;28;20026;-56
2022/03/15 04:10:21;;;;;;;14.85;9.18;;;;;;;;;;5025299;28;20036;-56
2022/03/15 04:12:47;;;;;;;14.20;9.13;;;;;;;;;;5027440;28;20033;-56
2022/03/15 04:15:14;;;;;;;12.13;8.38;;;;;;;;;;5028705;28;20030;-54
2022/03/15 04:17:40;;;;;;;14.70;8.98;;;;;;;;;;5026162;28;20039;-56
2022/03/15 04:20:07;;;;;;;14.60;9.60;;;;;;;;;;5024979;28;20025;-56
2022/03/15 04:22:33;;;;;;;12.65;8.30;;;;;;;;;;5027583;28;20104;-56
2022/03/15 04:24:59;;;;;;;14.60;8.32;;;;;;;;;;5025452;28;20588;-57
2022/03/15 04:27:25;;;;;;;14.52;9.00;;;;;;;;;;5031920;28;20100;-55
2022/03/15 04:29:51;;;;;;;13.13;8.85;;;;;;;;;;5026813;28;20033;-56
2022/03/15 04:32:18;;;;;;;15.20;8.27;;;;;;;;;;5032658;28;20078;-55
2022/03/15 04:34:44;;;;;;;15.13;8.68;;;;;;;;;;5026480;28;20048;-57
2022/03/15 04:37:10;;;;;;;15.05;8.27;;;;;;;;;;5027321;28;20104;-57
2022/03/15 04:39:36;;;;;;;14.07;8.30;;;;;;;;;;5031260;28;20072;-57
2022/03/15 04:42:03;;;;;;;11.70;7.47;;;;;;;;;;5031644;28;20041;-55
2022/03/15 04:44:29;;;;;;;12.38;7.45;;;;;;;;;;5029321;28;20017;-57
2022/03/15 04:46:56;;;;;;;15.05;8.05;;;;;;;;;;5022252;28;20855;-57
2022/03/15 04:49:22;;;;;;;13.00;7.90;;;;;;;;;;5025979;28;20558;-54
2022/03/15 04:51:48;;;;;;;10.43;7.25;;;;;;;;;;5027048;28;20021;-56
2022/03/15 04:54:14;;;;;;;12.55;7.82;;;;;;;;;;5029929;28;20033;-56
2022/03/15 04:56:41;;;;;;;14.43;7.75;;;;;;;;;;5028492;28;20039;-56
2022/03/15 04:59:07;;;;;;;12.45;7.53;;;;;;;;;;5029152;28;20029;-57
2022/03/15 05:01:34;;;;;;;14.23;8.05;;;;;;;;;;5024194;28;20033;-56
2022/03/15 05:04:00;;;;;;;14.73;8.15;;;;;;;;;;5026757;28;20109;-57
2022/03/15 05:06:26;;;;;;;14.70;7.65;;;;;;;;;;5029920;28;20690;-56
2022/03/15 05:08:52;;;;;;;15.82;7.63;;;;;;;;;;5036645;28;20442;-56
2022/03/15 05:11:18;;;;;;;14.38;7.45;;;;;;;;;;5034942;28;20029;-57
2022/03/15 05:13:45;;;;;;;13.95;7.57;;;;;;;;;;5028383;28;20036;-57
2022/03/15 05:16:17;;;;;;;11.18;7.40;;;;;;;;;;5029791;28;20392;-57
2022/03/15 05:18:45;;;;;;;15.50;7.45;;;;;;;;;;5032355;28;20492;-57
2022/03/15 05:21:16;;;;;;;13.98;7.47;;;;;;;;;;5026565;28;20101;-55
2022/03/15 05:23:42;;;;;;;10.40;6.93;;;;;;;;;;5030420;28;20043;-55
2022/03/15 05:26:08;;;;;;;16.98;7.00;;;;;;;;;;5033974;28;20396;-56
2022/03/15 05:28:34;;;;;;;13.13;7.05;;;;;;;;;;5030481;28;20533;-56
2022/03/15 05:31:00;;;;;;;12.32;6.95;;;;;;;;;;5030162;28;20033;-56
2022/03/15 05:33:28;;;;;;;14.18;7.10;;;;;;;;;;5030947;28;20370;-55
2022/03/15 05:35:54;;;;;;;15.25;8.07;;;;;;;;;;5030551;28;20037;-55
2022/03/15 05:38:20;;;;;;;13.43;7.20;;;;;;;;;;5030114;28;20098;-57
2022/03/15 05:40:46;;;;;;;14.32;7.72;;;;;;;;;;5032669;28;20468;-56
2022/03/15 05:43:13;;;;;;;12.68;7.82;;;;;;;;;;5034328;28;20021;-56
2022/03/15 05:45:39;;;;;;;15.13;8.18;;;;;;;;;;5025497;28;20083;-57
2022/03/15 05:48:06;;;;;;;15.95;8.90;;;;;;;;;;5026772;28;20600;-56
2022/03/15 05:50:32;;;;;;;12.73;7.88;;;;;;;;;;5029598;28;20029;-56
2022/03/15 05:52:59;;;;;;;14.70;7.65;;;;;;;;;;5034817;28;20420;-57
2022/03/15 05:55:25;;;;;;;16.80;7.50;;;;;;;;;;5025628;28;20112;-56
2022/03/15 05:57:51;;;;;;;11.00;6.75;;;;;;;;;;5028221;28;20116;-55
2022/03/15 06:00:17;;;;;;;12.38;6.97;;;;;;;;;;5029100;28;20033;-55
2022/03/15 06:02:43;;;;;;;11.95;6.57;;;;;;;;;;5027609;28;20078;-57
2022/03/15 06:05:11;;;;;;;14.02;7.35;;;;;;;;;;5030292;28;20021;-57
2022/03/15 06:07:47;;;;;;;11.07;6.63;;;;;;;;;;5033476;28;20683;-55
2022/03/15 06:10:13;;;;;;;14.13;7.50;;;;;;;;;;5039123;28;20033;-57
2022/03/15 06:12:39;;;;;;;13.10;7.50;;;;;;;;;;5034244;28;20033;-55
2022/03/15 06:15:06;;;;;;;13.48;7.68;;;;;;;;;;5036655;28;20457;-57
2022/03/15 06:17:32;;;;;;;13.43;6.63;;;;;;;;;;5035224;28;20429;-57
2022/03/15 06:19:58;;;;;;;14.93;7.15;;;;;;;;;;5031032;28;20037;-57
2022/03/15 06:22:24;;;;;;;10.45;5.97;;;;;;;;;;5026496;28;20025;-55
2022/03/15 06:24:50;;;;;;;10.55;6.50;;;;;;;;;;5030199;28;20082;-57
2022/03/15 06:27:16;;;;;;;13.00;6.57;;;;;;;;;;5029312;28;20036;-55
2022/03/15 06:29:42;;;;;;;27.85;16.67;;;;;;;;;;5026210;28;20044;-57
2022/03/15 06:32:08;;;;;;;42.35;25.83;;;;;;;;;;5025772;28;20261;-57
2022/03/15 06:34:34;;;;;;;17.73;12.05;;;;;;;;;;5028813;28;20057;-56
2022/03/15 06:37:00;;;;;;;14.65;6.82;;;;;;;;;;5029149;28;20080;-59
2022/03/15 06:39:26;;;;;;;11.63;6.75;;;;;;;;;;5032861;28;20030;-56
2022/03/15 06:41:53;;;;;;;13.77;6.70;;;;;;;;;;5031369;28;20022;-57
2022/03/15 06:44:19;;;;;;;11.27;6.30;;;;;;;;;;5036304;28;20509;-57
2022/03/15 06:46:45;;;;;;;11.77;6.20;;;;;;;;;;5030550;28;20033;-57
2022/03/15 06:49:11;;;;;;;12.85;6.28;;;;;;;;;;5031161;28;20373;-57
2022/03/15 06:51:37;;;;;;;16.35;6.95;;;;;;;;;;5028462;28;20436;-57
2022/03/15 06:54:03;;;;;;;13.13;6.72;;;;;;;;;;5032895;28;20030;-57
2022/03/15 06:56:29;;;;;;;10.88;5.63;;;;;;;;;;5030208;28;20593;-55
2022/03/15 06:58:55;;;;;;;13.93;5.85;;;;;;;;;;5037412;28;20021;-57
2022/03/15 07:01:21;;;;;;;8.98;5.00;;;;;;;;;;5032985;28;20037;-58
2022/03/15 07:03:49;;;;;;;13.05;4.90;;;;;;;;;;5028862;28;20037;-57
2022/03/15 07:06:15;;;;;;;15.52;5.70;;;;;;;;;;5030110;28;20092;-57
2022/03/15 07:08:41;;;;;;;11.10;5.82;;;;;;;;;;5027259;28;20737;-57
2022/03/15 07:11:07;;;;;;;13.32;5.70;;;;;;;;;;5035485;28;20025;-56
2022/03/15 07:13:33;;;;;;;12.80;6.20;;;;;;;;;;5029326;28;20026;-58
2022/03/15 07:15:59;;;;;;;12.82;4.65;;;;;;;;;;5027441;28;20037;-57
2022/03/15 07:18:25;;;;;;;13.40;5.35;;;;;;;;;;5030287;28;20037;-58
2022/03/15 07:20:51;;;;;;;13.35;5.35;;;;;;;;;;5030342;28;20028;-57
2022/03/15 07:23:17;;;;;;;11.77;5.05;;;;;;;;;;5029327;28;20029;-57
2022/03/15 07:25:43;;;;;;;11.65;4.55;;;;;;;;;;5027120;28;20021;-58
2022/03/15 07:28:09;;;;;;;10.18;4.60;;;;;;;;;;5028047;28;20033;-55
2022/03/15 07:30:35;;;;;;;9.52;4.45;;;;;;;;;;5032974;28;20447;-56
2022/03/15 07:33:01;;;;;;;13.80;5.13;;;;;;;;;;5034812;28;20111;-57
2022/03/15 07:35:28;;;;;;;9.25;4.40;;;;;;;;;;5026375;28;20849;-56
2022/03/15 07:37:59;;;;;;;12.45;4.40;;;;;;;;;;5028167;28;20409;-57
2022/03/15 07:40:26;;;;;;;10.02;4.10;;;;;;;;;;5025139;28;20558;-57
2022/03/15 07:42:52;;;;;;;12.13;4.15;;;;;;;;;;5023272;28;20099;-56
2022/03/15 07:45:19;;;;;;;9.52;4.05;;;;;;;;;;5022833;28;20111;-56
2022/03/15 07:47:47;;;;;;;10.63;3.85;;;;;;;;;;5025220;28;20041;-55
2022/03/15 07:50:14;;;;;;;11.85;4.45;;;;;;;;;;5030139;28;20728;-57
2022/03/15 07:52:40;;;;;;;11.07;4.07;;;;;;;;;;5031584;28;20037;-56
2022/03/15 07:55:06;;;;;;;9.68;3.60;;;;;;;;;;5030012;28;20103;-57
2022/03/15 07:57:32;;;;;;;10.88;3.67;;;;;;;;;;5028886;28;20045;-56
2022/03/15 07:59:58;;;;;;;8.77;3.60;;;;;;;;;;5032186;28;20033;-57
2022/03/15 08:02:25;;;;;;;9.55;3.90;;;;;;;;;;5028057;28;20501;-57
2022/03/15 08:04:53;;;;;;;9.57;3.30;;;;;;;;;;5030578;28;20512;-56
2022/03/15 08:07:20;;;;;;;13.05;3.78;;;;;;;;;;5028740;28;20029;-57
2022/03/15 08:09:46;;;;;;;13.82;7.55;;;;;;;;;;5036573;28;20033;-58
2022/03/15 08:12:13;;;;;;;12.70;5.40;;;;;;;;;;5027830;28;20032;-57
2022/03/15 08:14:39;;;;;;;8.32;3.88;;;;;;;;;;5032581;28;20025;-57
2022/03/15 08:17:05;;;;;;;8.95;3.65;;;;;;;;;;5029795;28;20044;-57
2022/03/15 08:19:31;;;;;;;10.55;3.60;;;;;;;;;;5035739;28;20041;-57
2022/03/15 08:22:01;;;;;;;10.77;3.50;;;;;;;;;;5025629;28;20385;-57
2022/03/15 08:24:27;;;;;;;8.88;3.63;;;;;;;;;;5028285;28;20066;-57
2022/03/15 08:26:53;;;;;;;10.90;3.95;;;;;;;;;;5029917;28;20025;-57
2022/03/15 08:29:19;;;;;;;9.52;3.45;;;;;;;;;;5030729;28;20045;-56
2022/03/15 08:31:45;;;;;;;7.88;3.75;;;;;;;;;;5030128;28;20033;-58
2022/03/15 08:34:11;;;;;;;12.85;4.50;;;;;;;;;;5030201;28;20076;-57
2022/03/15 08:36:37;;;;;;;13.35;4.40;;;;;;;;;;5029276;28;20108;-56
2022/03/15 08:39:04;;;;;;;13.07;4.10;;;;;;;;;;5029288;28;20033;-57
2022/03/15 08:41:30;;;;;;;11.10;3.72;;;;;;;;;;5031401;28;20223;-56
2022/03/15 08:43:56;;;;;;;12.68;3.50;;;;;;;;;;5029507;28;20197;-57
2022/03/15 08:46:22;;;;;;;9.43;3.58;;;;;;;;;;5025687;28;20465;-57
2022/03/15 08:48:48;;;;;;;8.60;3.63;;;;;;;;;;5025568;28;20038;-57
2022/03/15 08:51:14;;;;;;;7.90;3.55;;;;;;;;;;5025806;28;20117;-58
2022/03/15 08:53:40;;;;;;;7.13;3.50;;;;;;;;;;5034042;28;20040;-57
2022/03/15 08:56:06;;;;;;;11.07;3.92;;;;;;;;;;5026834;28;20060;-57
2022/03/15 08:58:32;;;;;;;12.45;3.53;;;;;;;;;;5026912;28;20033;-56
2022/03/15 09:00:59;;;;;;;10.48;3.50;;;;;;;;;;5026014;28;20029;-58
2022/03/15 09:03:24;;;;;;;9.55;3.45;;;;;;;;;;5023714;28;20022;-55
2022/03/15 09:05:51;;;;;;;9.25;3.70;;;;;;;;;;5022539;28;20397;-55
2022/03/15 09:08:17;;;;;;;11.70;3.40;;;;;;;;;;5026383;28;20029;-57
2022/03/15 09:10:44;;;;;;;10.55;3.60;;;;;;;;;;5025142;28;20025;-56
2022/03/15 09:13:10;;;;;;;10.95;3.42;;;;;;;;;;5026984;28;20079;-57
2022/03/15 09:15:36;;;;;;;6.82;3.35;;;;;;;;;;5028331;28;20481;-57
2022/03/15 09:18:03;;;;;;;11.48;3.58;;;;;;;;;;5028991;28;20376;-56
2022/03/15 09:20:30;;;;;;;10.05;3.70;;;;;;;;;;5025110;28;20125;-57
2022/03/15 09:22:56;;;;;;;6.18;3.47;;;;;;;;;;5024719;28;20039;-58
2022/03/15 09:25:22;;;;;;;9.82;4.18;;;;;;;;;;5029313;28;20033;-57
2022/03/15 09:27:49;;;;;;;10.05;3.95;;;;;;;;;;5029451;28;20080;-56
2022/03/15 09:30:15;;;;;;;14.40;4.20;;;;;;;;;;5024954;28;20116;-57
2022/03/15 09:32:42;;;;;;;15.05;4.90;;;;;;;;;;5025155;28;20037;-57
2022/03/15 09:35:09;;;;;;;6.88;3.88;;;;;;;;;;5023597;28;20038;-57
2022/03/15 09:37:35;;;;;;;8.95;3.97;;;;;;;;;;5026070;28;20044;-57
2022/03/15 09:40:01;;;;;;;6.75;3.55;;;;;;;;;;5025839;28;20025;-57
2022/03/15 09:42:29;;;;;;;9.02;3.53;;;;;;;;;;5028344;28;20052;-57
2022/03/15 09:44:57;;;;;;;9.90;3.97;;;;;;;;;;5026039;28;20033;-57
2022/03/15 09:47:31;;;;;;;7.38;3.83;;;;;;;;;;5026174;28;20032;-56
2022/03/15 09:49:59;;;;;;;7.78;3.78;;;;;;;;;;5026720;28;20423;-56
2022/03/15 09:52:27;;;;;;;8.32;3.67;;;;;;;;;;5030443;28;20118;-57
2022/03/15 09:54:54;;;;;;;10.20;3.90;;;;;;;;;;5032205;28;20045;-56
2022/03/15 09:57:21;;;;;;;8.48;3.92;;;;;;;;;;5030434;28;20029;-56
2022/03/15 09:59:50;;;;;;;7.25;3.95;;;;;;;;;;5030329;28;20030;-58
2022/03/15 10:02:16;;;;;;;10.75;4.30;;;;;;;;;;5031761;28;20037;-56
2022/03/15 10:04:42;;;;;;;7.78;4.05;;;;;;;;;;5029344;28;20439;-56
2022/03/15 10:07:08;;;;;;;10.68;4.50;;;;;;;;;;5034999;28;20518;-57
2022/03/15 10:09:35;;;;;;;12.55;4.63;;;;;;;;;;5028179;28;20057;-57
2022/03/15 10:12:02;;;;;;;10.65;4.90;;;;;;;;;;5034919;28;20149;-57
2022/03/15 10:14:28;;;;;;;10.90;4.32;;;;;;;;;;5032679;28;20124;-57
2022/03/15 10:17:01;;;;;;;11.45;4.28;;;;;;;;;;5031761;28;20195;-57
2022/03/15 10:19:29;;;;;;;;;;;;;;;;;;5031050;28;20033;-56
2022/03/15 10:21:56;;;;;;;9.43;4.32;;;;;;;;;;5045234;28;20627;-57
2022/03/15 10:24:29;;;;;;;9.63;4.10;;;;;;;;;;5031781;28;20024;-55
2022/03/15 10:27:00;;;;;;;10.00;4.88;;;;;;;;;;5029321;28;20021;-57
2022/03/15 10:29:28;;;;;;;12.43;4.60;;;;;;;;;;5033919;28;20658;-55
2022/03/15 10:31:54;;;;;;;6.70;3.90;;;;;;;;;;5025520;28;20048;-56
2022/03/15 10:34:21;;;;;;;6.97;3.97;;;;;;;;;;5026890;28;20653;-56
2022/03/15 10:36:47;;;;;;;6.75;4.20;;;;;;;;;;5032988;28;20687;-57
2022/03/15 10:39:15;;;;;;;9.25;4.50;;;;;;;;;;5035810;28;20119;-55
2022/03/15 10:41:42;;;;;;;9.00;4.53;;;;;;;;;;5029281;28;20025;-56
2022/03/15 10:44:15;;;;;;;11.38;4.43;;;;;;;;;;5029533;28;20033;-56
2022/03/15 10:46:41;;;;;;;11.83;4.63;;;;;;;;;;5029830;28;20075;-57
2022/03/15 10:49:07;;;;;;;9.80;4.25;;;;;;;;;;5037153;28;20075;-57
2022/03/15 10:51:33;;;;;;;11.20;4.25;;;;;;;;;;5030828;28;20127;-57
2022/03/15 10:54:03;;;;;;;8.52;4.70;;;;;;;;;;5027957;28;20048;-57
2022/03/15 10:56:30;;;;;;;8.02;4.53;;;;;;;;;;5030607;28;20029;-57
2022/03/15 10:59:01;;;;;;;8.85;4.60;;;;;;;;;;5027539;28;20041;-56
2022/03/15 11:01:28;;;;;;;10.45;4.20;;;;;;;;;;5030986;28;20068;-57
2022/03/15 11:03:58;;;;;;;9.57;4.50;;;;;;;;;;5036076;28;20370;-56
2022/03/15 11:06:30;;;;;;;9.85;4.78;;;;;;;;;;5027209;28;20025;-57
2022/03/15 11:08:56;;;;;;;10.18;4.55;;;;;;;;;;5029991;28;20155;-57
2022/03/15 11:11:26;;;;;;;9.05;4.75;;;;;;;;;;5027628;28;20112;-55
2022/03/15 11:14:03;;;;;;;11.18;4.43;;;;;;;;;;5034355;28;20033;-56
2022/03/15 11:16:31;;;;;;;14.38;4.70;;;;;;;;;;5029517;28;20082;-57
2022/03/15 11:19:00;;;;;;;10.48;4.93;;;;;;;;;;5035605;28;20029;-56
2022/03/15 11:21:26;;;;;;;9.27;5.03;;;;;;;;;;5034357;28;20350;-57
2022/03/15 11:23:53;;;;;;;11.07;4.93;;;;;;;;;;5035843;28;20075;-56
2022/03/15 11:26:21;;;;;;;8.85;4.97;;;;;;;;;;5031331;28;20553;-57
2022/03/15 11:28:48;;;;;;;10.75;5.07;;;;;;;;;;5031243;28;20538;-55
2022/03/15 11:31:15;;;;;;;16.60;6.00;;;;;;;;;;5028546;28;20112;-57
2022/03/15 11:33:45;;;;;;;8.43;4.85;;;;;;;;;;5025980;28;20473;-57
2022/03/15 11:36:12;;;;;;;18.58;11.57;;;;;;;;;;5038489;28;20041;-57
2022/03/15 11:38:38;;;;;;;12.32;5.60;;;;;;;;;;5028619;28;20041;-56
2022/03/15 11:41:05;;;;;;;11.52;5.32;;;;;;;;;;5026255;28;20108;-57
2022/03/15 11:43:50;;;;;;;10.32;5.20;;;;;;;;;;5030439;28;20029;-56
2022/03/15 11:46:36;;;;;;;15.13;5.45;;;;;;;;;;5034941;28;20116;-56
2022/03/15 11:49:11;;;;;;;10.07;5.43;;;;;;;;;;5030423;28;20029;-57
2022/03/15 11:52:07;;;;;;;9.35;5.43;;;;;;;;;;5028379;28;20056;-57
2022/03/15 11:54:45;;;;;;;10.85;6.00;;;;;;;;;;5023916;28;20057;-57
2022/03/15 11:57:30;;;;;;;9.10;5.55;;;;;;;;;;5029077;28;20758;-56
2022/03/15 11:59:57;;;;;;;8.80;5.15;;;;;;;;;;5024764;28;20120;-56
2022/03/15 12:02:30;;;;;;;11.30;5.70;;;;;;;;;;5032112;28;20041;-56
2022/03/15 12:04:57;;;;;;;9.15;5.75;;;;;;;;;;5024682;28;20104;-56
2022/03/15 12:07:36;;;;;;;12.05;6.20;;;;;;;;;;5026973;28;20068;-57
2022/03/15 12:10:09;;;;;;;11.30;5.68;;;;;;;;;;5032115;28;20373;-56
2022/03/15 12:12:36;;;;;;;12.57;5.82;;;;;;;;;;5031098;28;20030;-57
2022/03/15 12:15:14;;;;;;;11.25;5.75;;;;;;;;;;5032628;28;20539;-57
2022/03/15 12:17:40;;;;;;;11.70;5.85;;;;;;;;;;5023785;28;20025;-58
2022/03/15 12:20:16;;;;;;;10.60;5.55;;;;;;;;;;5030432;28;20477;-57
2022/03/15 12:22:43;;;;;;;11.40;5.97;;;;;;;;;;5034325;28;20544;-57
2022/03/15 12:25:18;;;;;;;9.43;5.35;;;;;;;;;;5029004;28;20672;-57
2022/03/15 12:27:46;;;;;;;13.57;6.50;;;;;;;;;;5026959;28;20026;-56
2022/03/15 12:30:18;;;;;;;10.50;5.75;;;;;;;;;;5029575;28;20048;-57
2022/03/15 12:32:51;;;;;;;13.40;6.28;;;;;;;;;;5024614;28;20103;-57
2022/03/15 12:35:17;;;;;;;11.40;5.60;;;;;;;;;;5027302;28;20029;-56
2022/03/15 12:37:46;;;;;;;15.77;6.20;;;;;;;;;;5030332;28;20060;-57
2022/03/15 12:40:12;;;;;;;12.40;5.40;;;;;;;;;;5031070;28;20433;-57
2022/03/15 12:42:39;;;;;;;10.95;6.15;;;;;;;;;;5034644;28;20036;-58
2022/03/15 12:45:08;;;;;;;11.30;5.43;;;;;;;;;;5031162;28;20029;-57
2022/03/15 12:47:35;;;;;;;9.00;5.57;;;;;;;;;;5024191;28;20029;-58
2022/03/15 12:50:18;;;;;;;9.02;5.10;;;;;;;;;;5029810;28;20045;-58
2022/03/15 12:52:45;;;;;;;16.97;6.00;;;;;;;;;;5030757;28;20048;-56
2022/03/15 12:55:19;;;;;;;11.07;5.75;;;;;;;;;;5036129;28;20035;-57
2022/03/15 12:57:46;;;;;;;13.35;5.93;;;;;;;;;;5029871;28;20033;-57
2022/03/15 13:00:14;;;;;;;58.03;34.60;;;;;;;;;;5028236;28;20289;-57
2022/03/15 13:02:41;;;;;;;9.52;5.50;;;;;;;;;;5028327;28;20047;-56
2022/03/15 13:05:17;;;;;;;9.15;5.50;;;;;;;;;;5024898;28;20033;-57
2022/03/15 13:07:44;;;;;;;10.90;5.53;;;;;;;;;;5024049;28;20029;-57
2022/03/15 13:10:12;;;;;;;9.73;5.38;;;;;;;;;;5027382;28;20201;-56
2022/03/15 13:12:40;;;;;;;8.68;5.22;;;;;;;;;;5027606;28;20025;-56
2022/03/15 13:15:06;;;;;;;10.02;5.60;;;;;;;;;;5026193;28;20113;-57
2022/03/15 13:17:32;;;;;;;8.68;4.68;;;;;;;;;;5029997;28;20088;-57
2022/03/15 13:20:00;;;;;;;10.43;5.10;;;;;;;;;;5026829;28;20057;-57
2022/03/15 13:22:28;;;;;;;10.52;5.10;;;;;;;;;;5026378;28;20009;-57
2022/03/15 13:24:55;;;;;;;9.52;5.03;;;;;;;;;;5022937;28;20057;-57
2022/03/15 13:27:22;;;;;;;11.75;5.68;;;;;;;;;;5032980;28;20048;-57
2022/03/15 13:29:48;;;;;;;10.25;5.10;;;;;;;;;;5031221;28;20100;-57
2022/03/15 13:32:22;;;;;;;11.00;5.75;;;;;;;;;;5032747;28;20033;-57
2022/03/15 13:34:55;;;;;;;14.48;6.07;;;;;;;;;;5030891;28;20400;-58
2022/03/15 13:37:21;;;;;;;9.13;5.15;;;;;;;;;;5030483;28;20104;-58
2022/03/15 13:39:47;;;;;;;11.35;6.28;;;;;;;;;;5024647;28;20352;-55
2022/03/15 13:42:16;;;;;;;10.82;5.95;;;;;;;;;;5036770;28;20021;-58
2022/03/15 13:44:49;;;;;;;13.25;5.32;;;;;;;;;;5034740;28;20535;-58
2022/03/15 13:47:16;;;;;;;8.88;5.03;;;;;;;;;;5033624;28;20025;-58
2022/03/15 13:49:42;;;;;;;13.63;5.28;;;;;;;;;;5029366;28;20040;-56
2022/03/15 13:52:09;;;;;;;8.25;4.80;;;;;;;;;;5037714;28;20484;-56
2022/03/15 13:54:52;;;;;;;9.82;4.65;;;;;;;;;;5033495;28;20034;-56
2022/03/15 13:57:28;;;;;;;11.05;4.18;;;;;;;;;;5030053;28;20029;-56
2022/03/15 13:59:58;;;;;;;8.82;4.15;;;;;;;;;;5031471;28;20029;-57
2022/03/15 14:02:25;;;;;;;9.85;4.10;;;;;;;;;;5029269;28;20487;-56
2022/03/15 14:05:01;;;;;;;6.38;3.45;;;;;;;;;;5031101;28;20021;-56
2022/03/15 14:07:28;;;;;;;6.93;3.70;;;;;;;;;;5033180;28;20187;-57
2022/03/15 14:09:58;;;;;;;6.32;3.08;;;;;;;;;;5031784;28;20037;-57
2022/03/15 14:12:29;;;;;;;7.53;3.83;;;;;;;;;;5033676;28;20013;-56
2022/03/15 14:14:55;;;;;;;11.48;3.28;;;;;;;;;;5032044;28;20040;-57
2022/03/15 14:17:22;;;;;;;6.93;2.92;;;;;;;;;;5027549;28;20118;-57
2022/03/15 14:19:50;;;;;;;5.53;3.00;;;;;;;;;;5034715;28;20558;-57
2022/03/15 14:22:25;;;;;;;5.22;2.90;;;;;;;;;;5036277;28;20025;-57
2022/03/15 14:24:55;;;;;;;5.80;2.75;;;;;;;;;;5030846;28;20376;-55
2022/03/15 14:27:22;;;;;;;6.03;3.20;;;;;;;;;;5030697;28;20080;-57
2022/03/15 14:29:51;;;;;;;5.38;2.72;;;;;;;;;;5031506;28;20456;-57
2022/03/15 14:32:17;;;;;;;6.25;2.53;;;;;;;;;;5027326;28;20025;-56
2022/03/15 14:35:04;;;;;;;5.07;2.55;;;;;;;;;;5029912;28;20024;-57